sensor_id;sensor_type;location;lat;lon;timestamp;pressure;altitude;pressure_sealevel;temperature;humidity
20156;BME280;10238;49.556;10.956;2023-05-09T00:02:08;98654.00;;;13.96;100.00
20156;BME280;10238;49.556;10.956;2023-05-09T00:04:57;98652.31;;;13.95;100.00
20156;BME280;10238;49.556;10.956;2023-05-09T00:07:46;98652.47;;;13.94;100.00
20156;BME280;10238;49.556;10.956;2023-05-09T00:10:34;98645.63;;;13.91;100.00
20156;BME280;10238;49.556;10.956;2023-05-09T00:13:22;98656.66;;;13.88;100.00
20156;BME280;10238;49.556;10.956;2023-05-09T00:16:11;98658.66;;;13.86;100.00
20156;BME280;10238;49.556;10.956;2023-05-09T00:18:59;98650.16;;;13.83;100.00
20156;BME280;10238;49.556;10.956;2023-05-09T00:21:47;98650.31;;;13.81;100.00
20156;BME280;10238;49.556;10.956;2023-05-09T00:24:37;98646.00;;;13.80;100.00
20156;BME280;10238;49.556;10.956;2023-05-09T00:27:25;98643.47;;;13.79;100.00
20156;BME280;10238;49.556;10.956;2023-05-09T00:30:15;98641.97;;;13.76;100.00
20156;BME280;10238;49.556;10.956;2023-05-09T00:33:03;98635.81;;;13.76;100.00
20156;BME280;10238;49.556;10.956;2023-05-09T00:35:51;98638.63;;;13.74;100.00
20156;BME280;10238;49.556;10.956;2023-05-09T00:38:39;98635.28;;;13.72;100.00
20156;BME280;10238;49.556;10.956;2023-05-09T00:41:28;98637.28;;;13.70;100.00
20156;BME280;10238;49.556;10.956;2023-05-09T00:44:16;98626.94;;;13.67;100.00
20156;BME280;10238;49.556;10.956;2023-05-09T00:47:05;98627.25;;;13.64;100.00
20156;BME280;10238;49.556;10.956;2023-05-09T00:49:53;98622.94;;;13.63;100.00
20156;BME280;10238;49.556;10.956;2023-05-09T00:52:42;98615.09;;;13.62;100.00
20156;BME280;10238;49.556;10.956;2023-05-09T00:55:30;98612.75;;;13.59;100.00
20156;BME280;10238;49.556;10.956;2023-05-09T00:58:19;98613.59;;;13.59;100.00
20156;BME280;10238;49.556;10.956;2023-05-09T01:01:07;98611.41;;;13.55;100.00
20156;BME280;10238;49.556;10.956;2023-05-09T01:03:55;98608.22;;;13.51;100.00
20156;BME280;10238;49.556;10.956;2023-05-09T01:06:48;98607.59;;;13.49;100.00
20156;BME280;10238;49.556;10.956;2023-05-09T01:09:45;98602.41;;;13.48;100.00
20156;BME280;10238;49.556;10.956;2023-05-09T01:12:40;98598.03;;;13.47;100.00
20156;BME280;10238;49.556;10.956;2023-05-09T01:15:33;98602.75;;;13.45;100.00
20156;BME280;10238;49.556;10.956;2023-05-09T01:18:30;98594.22;;;13.41;100.00
20156;BME280;10238;49.556;10.956;2023-05-09T01:21:22;98597.91;;;13.40;100.00
20156;BME280;10238;49.556;10.956;2023-05-09T01:24:39;98603.22;;;13.40;100.00
20156;BME280;10238;49.556;10.956;2023-05-09T01:27:41;98598.22;;;13.37;100.00
20156;BME280;10238;49.556;10.956;2023-05-09T01:30:37;98596.91;;;13.33;100.00
20156;BME280;10238;49.556;10.956;2023-05-09T01:33:27;98600.53;;;13.32;100.00
20156;BME280;10238;49.556;10.956;2023-05-09T01:36:19;98591.72;;;13.32;100.00
20156;BME280;10238;49.556;10.956;2023-05-09T01:39:11;98592.22;;;13.27;100.00
20156;BME280;10238;49.556;10.956;2023-05-09T01:42:02;98588.88;;;13.25;100.00
20156;BME280;10238;49.556;10.956;2023-05-09T01:44:52;98595.38;;;13.23;100.00
20156;BME280;10238;49.556;10.956;2023-05-09T01:47:42;98579.19;;;13.24;100.00
20156;BME280;10238;49.556;10.956;2023-05-09T01:50:31;98576.53;;;13.24;100.00
20156;BME280;10238;49.556;10.956;2023-05-09T01:53:21;98572.19;;;13.23;100.00
20156;BME280;10238;49.556;10.956;2023-05-09T01:56:09;98577.88;;;13.20;100.00
20156;BME280;10238;49.556;10.956;2023-05-09T01:59:00;98581.50;;;13.19;100.00
20156;BME280;10238;49.556;10.956;2023-05-09T02:01:49;98578.19;;;13.17;100.00
20156;BME280;10238;49.556;10.956;2023-05-09T02:04:40;98572.84;;;13.17;100.00
20156;BME280;10238;49.556;10.956;2023-05-09T02:07:30;98572.19;;;13.15;100.00
20156;BME280;10238;49.556;10.956;2023-05-09T02:10:19;98578.19;;;13.17;100.00
20156;BME280;10238;49.556;10.956;2023-05-09T02:13:07;98575.84;;;13.14;100.00
20156;BME280;10238;49.556;10.956;2023-05-09T02:15:55;98572.50;;;13.12;100.00
20156;BME280;10238;49.556;10.956;2023-05-09T02:18:44;98587.69;;;13.12;100.00
20156;BME280;10238;49.556;10.956;2023-05-09T02:21:34;98583.50;;;13.09;100.00
20156;BME280;10238;49.556;10.956;2023-05-09T02:24:22;98583.50;;;13.09;100.00
20156;BME280;10238;49.556;10.956;2023-05-09T02:27:11;98580.19;;;13.07;100.00
20156;BME280;10238;49.556;10.956;2023-05-09T02:30:02;98589.34;;;13.04;100.00
20156;BME280;10238;49.556;10.956;2023-05-09T02:32:55;98590.34;;;13.03;100.00
20156;BME280;10238;49.556;10.956;2023-05-09T02:35:45;98584.16;;;13.03;100.00
20156;BME280;10238;49.556;10.956;2023-05-09T02:38:34;98586.34;;;12.99;100.00
20156;BME280;10238;49.556;10.956;2023-05-09T02:41:22;98586.47;;;12.98;100.00
20156;BME280;10238;49.556;10.956;2023-05-09T02:44:13;98585.97;;;12.94;100.00
20156;BME280;10238;49.556;10.956;2023-05-09T02:47:01;98581.47;;;12.95;100.00
20156;BME280;10238;49.556;10.956;2023-05-09T02:49:49;98579.78;;;12.94;100.00
20156;BME280;10238;49.556;10.956;2023-05-09T02:52:37;98575.59;;;12.91;100.00
20156;BME280;10238;49.556;10.956;2023-05-09T02:55:27;98574.78;;;12.91;100.00
20156;BME280;10238;49.556;10.956;2023-05-09T02:58:15;98580.13;;;12.91;100.00
20156;BME280;10238;49.556;10.956;2023-05-09T03:01:03;98579.44;;;12.89;100.00
20156;BME280;10238;49.556;10.956;2023-05-09T03:03:51;98569.78;;;12.88;100.00
20156;BME280;10238;49.556;10.956;2023-05-09T03:06:39;98576.25;;;12.85;100.00
20156;BME280;10238;49.556;10.956;2023-05-09T03:09:29;98572.09;;;12.83;100.00
20156;BME280;10238;49.556;10.956;2023-05-09T03:12:19;98570.44;;;12.82;100.00
20156;BME280;10238;49.556;10.956;2023-05-09T03:15:07;98569.91;;;12.78;100.00
20156;BME280;10238;49.556;10.956;2023-05-09T03:17:55;98569.06;;;12.78;100.00
20156;BME280;10238;49.556;10.956;2023-05-09T03:20:43;98560.41;;;12.76;100.00
20156;BME280;10238;49.556;10.956;2023-05-09T03:23:31;98559.91;;;12.72;100.00
20156;BME280;10238;49.556;10.956;2023-05-09T03:26:19;98562.72;;;12.71;100.00
20156;BME280;10238;49.556;10.956;2023-05-09T03:29:09;98563.03;;;12.68;100.00
20156;BME280;10238;49.556;10.956;2023-05-09T03:31:56;98566.72;;;12.67;100.00
20156;BME280;10238;49.556;10.956;2023-05-09T03:34:44;98564.22;;;12.65;100.00
20156;BME280;10238;49.556;10.956;2023-05-09T03:37:32;98566.19;;;12.63;100.00
20156;BME280;10238;49.556;10.956;2023-05-09T03:40:20;98559.38;;;12.61;100.00
20156;BME280;10238;49.556;10.956;2023-05-09T03:43:08;98558.03;;;12.57;100.00
20156;BME280;10238;49.556;10.956;2023-05-09T03:45:58;98564.53;;;12.54;100.00
20156;BME280;10238;49.556;10.956;2023-05-09T03:48:46;98562.03;;;12.53;100.00
20156;BME280;10238;49.556;10.956;2023-05-09T03:51:34;98559.69;;;12.50;100.00
20156;BME280;10238;49.556;10.956;2023-05-09T03:54:22;98566.16;;;12.47;100.00
20156;BME280;10238;49.556;10.956;2023-05-09T03:57:13;98561.66;;;12.48;100.00
20156;BME280;10238;49.556;10.956;2023-05-09T04:00:01;98576.00;;;12.47;100.00
20156;BME280;10238;49.556;10.956;2023-05-09T04:02:51;98562.66;;;12.47;100.00
20156;BME280;10238;49.556;10.956;2023-05-09T04:05:40;98563.63;;;12.46;100.00
20156;BME280;10238;49.556;10.956;2023-05-09T04:08:28;98572.66;;;12.45;100.00
20156;BME280;10238;49.556;10.956;2023-05-09T04:11:15;98566.47;;;12.44;100.00
20156;BME280;10238;49.556;10.956;2023-05-09T04:14:04;98570.97;;;12.44;100.00
20156;BME280;10238;49.556;10.956;2023-05-09T04:16:52;98581.81;;;12.42;100.00
20156;BME280;10238;49.556;10.956;2023-05-09T04:19:42;98578.13;;;12.43;100.00
20156;BME280;10238;49.556;10.956;2023-05-09T04:22:30;98575.47;;;12.43;100.00
20156;BME280;10238;49.556;10.956;2023-05-09T04:25:18;98575.47;;;12.43;100.00
20156;BME280;10238;49.556;10.956;2023-05-09T04:28:06;98561.97;;;12.45;100.00
20156;BME280;10238;49.556;10.956;2023-05-09T04:30:54;98570.97;;;12.44;100.00
20156;BME280;10238;49.556;10.956;2023-05-09T04:33:42;98570.97;;;12.44;100.00
20156;BME280;10238;49.556;10.956;2023-05-09T04:36:31;98566.47;;;12.44;100.00
20156;BME280;10238;49.556;10.956;2023-05-09T04:39:19;98571.31;;;12.49;100.00
20156;BME280;10238;49.556;10.956;2023-05-09T04:42:07;98567.00;;;12.48;100.00
20156;BME280;10238;49.556;10.956;2023-05-09T04:44:55;98573.66;;;12.52;100.00
20156;BME280;10238;49.556;10.956;2023-05-09T04:47:43;98574.34;;;12.54;100.00
20156;BME280;10238;49.556;10.956;2023-05-09T04:50:31;98575.69;;;12.58;100.00
20156;BME280;10238;49.556;10.956;2023-05-09T04:53:20;98574.34;;;12.62;100.00
20156;BME280;10238;49.556;10.956;2023-05-09T04:56:08;98576.69;;;12.65;100.00
20156;BME280;10238;49.556;10.956;2023-05-09T04:58:56;98575.91;;;12.72;100.00
20156;BME280;10238;49.556;10.956;2023-05-09T05:01:44;98579.56;;;12.79;100.00
20156;BME280;10238;49.556;10.956;2023-05-09T05:04:32;98575.78;;;12.82;100.00
20156;BME280;10238;49.556;10.956;2023-05-09T05:07:20;98579.28;;;12.90;100.00
20156;BME280;10238;49.556;10.956;2023-05-09T05:10:10;98579.44;;;12.97;100.00
20156;BME280;10238;49.556;10.956;2023-05-09T05:12:58;98580.53;;;13.04;100.00
20156;BME280;10238;49.556;10.956;2023-05-09T05:15:46;98575.81;;;13.06;100.00
20156;BME280;10238;49.556;10.956;2023-05-09T05:18:35;98563.00;;;13.10;100.00
20156;BME280;10238;49.556;10.956;2023-05-09T05:21:23;98570.66;;;13.21;100.00
20156;BME280;10238;49.556;10.956;2023-05-09T05:24:11;98570.53;;;13.30;100.00
20156;BME280;10238;49.556;10.956;2023-05-09T05:27:00;98562.84;;;13.35;100.00
20156;BME280;10238;49.556;10.956;2023-05-09T05:29:48;98567.19;;;13.44;100.00
20156;BME280;10238;49.556;10.956;2023-05-09T05:32:37;98562.81;;;13.51;100.00
20156;BME280;10238;49.556;10.956;2023-05-09T05:35:25;98554.81;;;13.59;100.00
20156;BME280;10238;49.556;10.956;2023-05-09T05:38:14;98553.31;;;13.65;100.00
20156;BME280;10238;49.556;10.956;2023-05-09T05:41:02;98555.47;;;13.69;100.00
20156;BME280;10238;49.556;10.956;2023-05-09T05:43:51;98553.78;;;13.76;100.00
20156;BME280;10238;49.556;10.956;2023-05-09T05:46:40;98546.75;;;13.83;100.00
20156;BME280;10238;49.556;10.956;2023-05-09T05:49:28;98548.09;;;13.87;100.00
20156;BME280;10238;49.556;10.956;2023-05-09T05:52:16;98551.75;;;13.94;100.00
20156;BME280;10238;49.556;10.956;2023-05-09T05:55:04;98536.53;;;14.03;100.00
20156;BME280;10238;49.556;10.956;2023-05-09T05:57:52;98531.34;;;14.09;100.00
20156;BME280;10238;49.556;10.956;2023-05-09T06:00:42;98530.28;;;14.18;100.00
20156;BME280;10238;49.556;10.956;2023-05-09T06:03:30;98528.28;;;14.20;100.00
20156;BME280;10238;49.556;10.956;2023-05-09T06:06:20;98529.63;;;14.24;100.00
20156;BME280;10238;49.556;10.956;2023-05-09T06:09:08;98529.94;;;14.21;100.00
20156;BME280;10238;49.556;10.956;2023-05-09T06:11:56;98519.94;;;14.23;100.00
20156;BME280;10238;49.556;10.956;2023-05-09T06:14:44;98523.94;;;14.19;100.00
20156;BME280;10238;49.556;10.956;2023-05-09T06:17:34;98522.28;;;14.26;100.00
20156;BME280;10238;49.556;10.956;2023-05-09T06:20:21;98520.81;;;14.46;100.00
20156;BME280;10238;49.556;10.956;2023-05-09T06:23:09;98519.94;;;14.62;100.00
20156;BME280;10238;49.556;10.956;2023-05-09T06:25:57;98509.59;;;14.51;100.00
20156;BME280;10238;49.556;10.956;2023-05-09T06:28:45;98516.44;;;14.53;100.00
20156;BME280;10238;49.556;10.956;2023-05-09T06:31:34;98507.72;;;14.59;100.00
20156;BME280;10238;49.556;10.956;2023-05-09T06:34:26;98500.75;;;14.81;100.00
20156;BME280;10238;49.556;10.956;2023-05-09T06:37:13;98502.78;;;15.01;100.00
20156;BME280;10238;49.556;10.956;2023-05-09T06:40:01;98510.50;;;15.19;100.00
20156;BME280;10238;49.556;10.956;2023-05-09T06:42:50;98492.56;;;15.42;100.00
20156;BME280;10238;49.556;10.956;2023-05-09T06:45:38;98490.66;;;15.65;98.92
20156;BME280;10238;49.556;10.956;2023-05-09T06:48:26;98480.06;;;15.72;95.99
20156;BME280;10238;49.556;10.956;2023-05-09T06:51:15;98477.81;;;15.61;94.73
20156;BME280;10238;49.556;10.956;2023-05-09T06:54:03;98472.72;;;15.51;97.18
20156;BME280;10238;49.556;10.956;2023-05-09T06:56:54;98476.59;;;15.63;97.24
20156;BME280;10238;49.556;10.956;2023-05-09T06:59:42;98470.13;;;15.58;93.45
20156;BME280;10238;49.556;10.956;2023-05-09T07:02:30;98470.88;;;15.66;94.20
20156;BME280;10238;49.556;10.956;2023-05-09T07:05:18;98465.25;;;15.47;91.00
20156;BME280;10238;49.556;10.956;2023-05-09T07:08:07;98461.28;;;15.86;94.71
20156;BME280;10238;49.556;10.956;2023-05-09T07:10:55;98453.69;;;16.04;90.61
20156;BME280;10238;49.556;10.956;2023-05-09T07:13:43;98450.31;;;16.31;88.47
20156;BME280;10238;49.556;10.956;2023-05-09T07:16:31;98446.59;;;16.47;87.64
20156;BME280;10238;49.556;10.956;2023-05-09T07:19:22;98438.69;;;16.60;86.72
20156;BME280;10238;49.556;10.956;2023-05-09T07:22:10;98441.41;;;16.81;88.65
20156;BME280;10238;49.556;10.956;2023-05-09T07:25:00;98433.69;;;16.99;84.31
20156;BME280;10238;49.556;10.956;2023-05-09T07:27:49;98434.56;;;17.27;85.58
20156;BME280;10238;49.556;10.956;2023-05-09T07:30:37;98436.34;;;17.41;82.60
20156;BME280;10238;49.556;10.956;2023-05-09T07:33:25;98428.47;;;17.40;78.69
20156;BME280;10238;49.556;10.956;2023-05-09T07:36:12;98424.94;;;17.39;77.93
20156;BME280;10238;49.556;10.956;2023-05-09T07:39:02;98424.38;;;17.71;79.81
20156;BME280;10238;49.556;10.956;2023-05-09T07:41:52;98419.53;;;17.94;75.90
20156;BME280;10238;49.556;10.956;2023-05-09T07:44:40;98413.84;;;18.23;80.91
20156;BME280;10238;49.556;10.956;2023-05-09T07:47:28;98412.78;;;18.65;76.63
20156;BME280;10238;49.556;10.956;2023-05-09T07:50:16;98407.03;;;18.87;74.97
20156;BME280;10238;49.556;10.956;2023-05-09T07:53:04;98402.06;;;19.23;74.81
20156;BME280;10238;49.556;10.956;2023-05-09T07:55:52;98395.00;;;18.90;70.40
20156;BME280;10238;49.556;10.956;2023-05-09T07:58:41;98400.84;;;19.33;71.47
20156;BME280;10238;49.556;10.956;2023-05-09T08:01:29;98385.00;;;19.69;71.15
20156;BME280;10238;49.556;10.956;2023-05-09T08:04:17;98377.03;;;20.00;71.27
20156;BME280;10238;49.556;10.956;2023-05-09T08:07:06;98375.13;;;20.13;66.58
20156;BME280;10238;49.556;10.956;2023-05-09T08:09:54;98367.97;;;20.32;66.57
20156;BME280;10238;49.556;10.956;2023-05-09T08:12:42;98360.50;;;20.65;65.52
20156;BME280;10238;49.556;10.956;2023-05-09T08:15:31;98368.41;;;19.72;62.60
20156;BME280;10238;49.556;10.956;2023-05-09T08:18:19;98381.31;;;19.44;61.93
20156;BME280;10238;49.556;10.956;2023-05-09T08:21:07;98367.19;;;19.68;63.69
20156;BME280;10238;49.556;10.956;2023-05-09T08:23:55;98358.84;;;19.76;62.13
20156;BME280;10238;49.556;10.956;2023-05-09T08:26:43;98350.25;;;20.42;66.46
20156;BME280;10238;49.556;10.956;2023-05-09T08:29:31;98355.44;;;20.75;64.17
20156;BME280;10238;49.556;10.956;2023-05-09T08:32:20;98345.69;;;21.05;60.60
20156;BME280;10238;49.556;10.956;2023-05-09T08:35:08;98344.09;;;21.40;61.10
20156;BME280;10238;49.556;10.956;2023-05-09T08:37:57;98337.44;;;21.79;64.09
20156;BME280;10238;49.556;10.956;2023-05-09T08:40:45;98331.41;;;21.41;57.48
20156;BME280;10238;49.556;10.956;2023-05-09T08:43:33;98322.16;;;22.02;63.89
20156;BME280;10238;49.556;10.956;2023-05-09T08:46:26;98311.47;;;22.25;58.26
20156;BME280;10238;49.556;10.956;2023-05-09T08:49:17;98306.00;;;23.07;57.29
20156;BME280;10238;49.556;10.956;2023-05-09T08:52:06;98299.31;;;23.33;57.22
20156;BME280;10238;49.556;10.956;2023-05-09T08:54:54;98300.97;;;21.63;56.61
20156;BME280;10238;49.556;10.956;2023-05-09T08:57:42;98295.25;;;21.89;59.70
20156;BME280;10238;49.556;10.956;2023-05-09T09:00:31;98287.47;;;22.81;58.56
20156;BME280;10238;49.556;10.956;2023-05-09T09:03:20;98289.75;;;23.54;56.15
20156;BME280;10238;49.556;10.956;2023-05-09T09:06:09;98297.03;;;23.18;55.67
20156;BME280;10238;49.556;10.956;2023-05-09T09:08:58;98298.91;;;22.83;58.05
20156;BME280;10238;49.556;10.956;2023-05-09T09:11:47;98285.59;;;23.40;60.18
20156;BME280;10238;49.556;10.956;2023-05-09T09:14:38;98279.56;;;23.61;54.53
20156;BME280;10238;49.556;10.956;2023-05-09T09:17:30;98275.25;;;23.88;50.34
20156;BME280;10238;49.556;10.956;2023-05-09T09:20:21;98275.34;;;23.42;50.06
20156;BME280;10238;49.556;10.956;2023-05-09T09:23:11;98267.28;;;24.54;54.04
20156;BME280;10238;49.556;10.956;2023-05-09T09:26:02;98276.06;;;24.28;49.65
20156;BME280;10238;49.556;10.956;2023-05-09T09:28:50;98252.97;;;25.41;51.50
20156;BME280;10238;49.556;10.956;2023-05-09T09:31:44;98250.09;;;25.96;51.66
20156;BME280;10238;49.556;10.956;2023-05-09T09:34:33;98245.81;;;25.78;50.46
20156;BME280;10238;49.556;10.956;2023-05-09T09:37:21;98239.84;;;26.82;52.24
20156;BME280;10238;49.556;10.956;2023-05-09T09:40:12;98233.63;;;27.28;49.81
20156;BME280;10238;49.556;10.956;2023-05-09T09:43:00;98225.41;;;27.23;45.19
20156;BME280;10238;49.556;10.956;2023-05-09T09:45:49;98232.22;;;26.84;45.96
20156;BME280;10238;49.556;10.956;2023-05-09T09:48:37;98217.63;;;25.89;48.40
20156;BME280;10238;49.556;10.956;2023-05-09T09:51:27;98214.88;;;26.11;43.57
20156;BME280;10238;49.556;10.956;2023-05-09T09:54:16;98208.31;;;26.38;48.05
20156;BME280;10238;49.556;10.956;2023-05-09T09:57:06;98199.41;;;27.73;49.04
20156;BME280;10238;49.556;10.956;2023-05-09T09:59:58;98200.72;;;28.62;46.68
20156;BME280;10238;49.556;10.956;2023-05-09T10:02:47;98207.63;;;26.53;41.01
20156;BME280;10238;49.556;10.956;2023-05-09T10:05:35;98201.94;;;26.54;40.12
20156;BME280;10238;49.556;10.956;2023-05-09T10:08:24;98194.47;;;25.92;45.40
20156;BME280;10238;49.556;10.956;2023-05-09T10:11:12;98184.31;;;27.03;39.80
20156;BME280;10238;49.556;10.956;2023-05-09T10:14:02;98193.38;;;25.45;40.70
20156;BME280;10238;49.556;10.956;2023-05-09T10:16:51;98174.78;;;26.06;39.53
20156;BME280;10238;49.556;10.956;2023-05-09T10:19:44;98188.16;;;24.67;38.63
20156;BME280;10238;49.556;10.956;2023-05-09T10:22:35;98186.13;;;25.12;44.86
20156;BME280;10238;49.556;10.956;2023-05-09T10:25:30;98166.91;;;26.10;38.52
20156;BME280;10238;49.556;10.956;2023-05-09T10:28:22;98167.06;;;25.77;36.14
20156;BME280;10238;49.556;10.956;2023-05-09T10:31:21;98158.00;;;25.66;38.42
20156;BME280;10238;49.556;10.956;2023-05-09T10:34:10;98151.06;;;25.80;38.51
20156;BME280;10238;49.556;10.956;2023-05-09T10:36:59;98146.28;;;26.19;38.01
20156;BME280;10238;49.556;10.956;2023-05-09T10:39:48;98146.63;;;26.27;39.01
20156;BME280;10238;49.556;10.956;2023-05-09T10:42:39;98131.03;;;27.43;38.51
20156;BME280;10238;49.556;10.956;2023-05-09T10:45:28;98117.00;;;28.16;40.32
20156;BME280;10238;49.556;10.956;2023-05-09T10:48:17;98115.34;;;27.95;35.33
20156;BME280;10238;49.556;10.956;2023-05-09T10:51:06;98112.00;;;27.68;35.01
20156;BME280;10238;49.556;10.956;2023-05-09T10:53:54;98111.22;;;25.74;35.76
20156;BME280;10238;49.556;10.956;2023-05-09T10:56:43;98091.47;;;26.93;42.07
20156;BME280;10238;49.556;10.956;2023-05-09T10:59:36;98092.72;;;26.71;38.82
20156;BME280;10238;49.556;10.956;2023-05-09T11:02:25;98102.75;;;26.29;35.66
20156;BME280;10238;49.556;10.956;2023-05-09T11:05:18;98090.44;;;25.63;33.80
20156;BME280;10238;49.556;10.956;2023-05-09T11:08:20;98082.19;;;26.11;36.32
20156;BME280;10238;49.556;10.956;2023-05-09T11:11:09;98071.03;;;26.54;36.44
20156;BME280;10238;49.556;10.956;2023-05-09T11:14:09;98078.97;;;25.93;33.67
20156;BME280;10238;49.556;10.956;2023-05-09T11:17:27;98068.91;;;25.93;36.50
20156;BME280;10238;49.556;10.956;2023-05-09T11:20:16;98062.56;;;25.56;34.19
20156;BME280;10238;49.556;10.956;2023-05-09T11:23:04;98056.44;;;25.71;33.79
20156;BME280;10238;49.556;10.956;2023-05-09T11:25:52;98057.94;;;25.83;34.86
20156;BME280;10238;49.556;10.956;2023-05-09T11:28:53;98045.88;;;26.42;39.78
20156;BME280;10238;49.556;10.956;2023-05-09T11:32:03;98039.63;;;26.42;35.96
20156;BME280;10238;49.556;10.956;2023-05-09T11:34:52;98036.88;;;26.88;37.68
20156;BME280;10238;49.556;10.956;2023-05-09T11:37:58;98037.72;;;26.47;33.79
20156;BME280;10238;49.556;10.956;2023-05-09T11:40:46;98023.72;;;27.42;39.71
20156;BME280;10238;49.556;10.956;2023-05-09T11:43:35;98017.50;;;28.07;34.26
20156;BME280;10238;49.556;10.956;2023-05-09T11:46:25;98019.09;;;27.83;36.96
20156;BME280;10238;49.556;10.956;2023-05-09T11:49:13;98010.63;;;27.64;41.19
20156;BME280;10238;49.556;10.956;2023-05-09T11:52:04;97988.47;;;28.46;36.33
20156;BME280;10238;49.556;10.956;2023-05-09T11:54:54;97996.56;;;28.86;35.86
20156;BME280;10238;49.556;10.956;2023-05-09T11:57:43;97992.00;;;29.25;40.15
20156;BME280;10238;49.556;10.956;2023-05-09T12:00:31;97970.91;;;29.98;34.65
20156;BME280;10238;49.556;10.956;2023-05-09T12:03:19;97976.69;;;29.19;34.33
20156;BME280;10238;49.556;10.956;2023-05-09T12:06:08;97967.06;;;30.56;40.91
20156;BME280;10238;49.556;10.956;2023-05-09T12:09:01;97971.44;;;29.71;35.96
20156;BME280;10238;49.556;10.956;2023-05-09T12:11:50;97955.38;;;30.45;37.04
20156;BME280;10238;49.556;10.956;2023-05-09T12:14:39;97945.19;;;30.69;35.05
20156;BME280;10238;49.556;10.956;2023-05-09T12:17:27;97948.47;;;29.96;33.88
20156;BME280;10238;49.556;10.956;2023-05-09T12:20:15;97941.03;;;29.96;30.05
20156;BME280;10238;49.556;10.956;2023-05-09T12:23:03;97933.63;;;30.72;33.15
20156;BME280;10238;49.556;10.956;2023-05-09T12:25:53;97937.88;;;29.07;30.80
20156;BME280;10238;49.556;10.956;2023-05-09T12:28:43;97936.34;;;28.86;33.84
20156;BME280;10238;49.556;10.956;2023-05-09T12:31:31;97928.25;;;28.61;34.08
20156;BME280;10238;49.556;10.956;2023-05-09T12:34:20;97922.72;;;29.63;35.68
20156;BME280;10238;49.556;10.956;2023-05-09T12:37:14;97921.09;;;28.70;31.03
20156;BME280;10238;49.556;10.956;2023-05-09T12:40:04;97921.84;;;27.57;28.55
20156;BME280;10238;49.556;10.956;2023-05-09T12:42:52;97925.72;;;26.59;30.61
20156;BME280;10238;49.556;10.956;2023-05-09T12:45:51;97912.03;;;27.91;32.63
20156;BME280;10238;49.556;10.956;2023-05-09T12:48:40;97919.38;;;28.89;33.54
20156;BME280;10238;49.556;10.956;2023-05-09T12:51:29;97907.88;;;28.87;33.71
20156;BME280;10238;49.556;10.956;2023-05-09T12:54:20;97897.56;;;29.56;31.50
20156;BME280;10238;49.556;10.956;2023-05-09T12:57:20;97894.63;;;29.81;34.69
20156;BME280;10238;49.556;10.956;2023-05-09T13:00:10;97894.63;;;28.55;30.70
20156;BME280;10238;49.556;10.956;2023-05-09T13:02:59;97882.88;;;28.40;31.37
20156;BME280;10238;49.556;10.956;2023-05-09T13:05:54;97882.72;;;29.57;32.30
20156;BME280;10238;49.556;10.956;2023-05-09T13:08:42;97869.22;;;31.07;34.12
20156;BME280;10238;49.556;10.956;2023-05-09T13:11:32;97858.50;;;30.26;26.98
20156;BME280;10238;49.556;10.956;2023-05-09T13:14:21;97862.06;;;29.41;28.81
20156;BME280;10238;49.556;10.956;2023-05-09T13:17:09;97867.19;;;28.70;28.72
20156;BME280;10238;49.556;10.956;2023-05-09T13:19:58;97860.97;;;28.60;30.78
20156;BME280;10238;49.556;10.956;2023-05-09T13:22:46;97854.97;;;28.43;28.60
20156;BME280;10238;49.556;10.956;2023-05-09T13:25:34;97844.50;;;28.70;29.62
20156;BME280;10238;49.556;10.956;2023-05-09T13:28:22;97844.91;;;29.59;32.98
20156;BME280;10238;49.556;10.956;2023-05-09T13:31:10;97846.00;;;28.32;29.78
20156;BME280;10238;49.556;10.956;2023-05-09T13:33:58;97830.13;;;29.89;32.49
20156;BME280;10238;49.556;10.956;2023-05-09T13:36:47;97817.47;;;30.58;33.49
20156;BME280;10238;49.556;10.956;2023-05-09T13:39:35;97813.63;;;30.96;32.28
20156;BME280;10238;49.556;10.956;2023-05-09T13:42:23;97819.72;;;29.57;29.38
20156;BME280;10238;49.556;10.956;2023-05-09T13:45:12;97830.69;;;28.85;31.95
20156;BME280;10238;49.556;10.956;2023-05-09T13:48:00;97818.22;;;29.41;31.77
20156;BME280;10238;49.556;10.956;2023-05-09T13:50:50;97811.72;;;29.89;30.90
20156;BME280;10238;49.556;10.956;2023-05-09T13:53:39;97803.78;;;29.64;31.48
20156;BME280;10238;49.556;10.956;2023-05-09T13:56:27;97803.28;;;29.29;31.45
20156;BME280;10238;49.556;10.956;2023-05-09T13:59:15;97803.84;;;28.43;27.74
20156;BME280;10238;49.556;10.956;2023-05-09T14:02:03;97809.66;;;28.32;28.66
20156;BME280;10238;49.556;10.956;2023-05-09T14:04:51;97807.94;;;28.51;32.48
20156;BME280;10238;49.556;10.956;2023-05-09T14:07:40;97785.28;;;28.84;34.56
20156;BME280;10238;49.556;10.956;2023-05-09T14:10:29;97783.41;;;29.75;32.83
20156;BME280;10238;49.556;10.956;2023-05-09T14:13:17;97781.50;;;28.75;32.80
20156;BME280;10238;49.556;10.956;2023-05-09T14:16:05;97780.44;;;28.71;29.46
20156;BME280;10238;49.556;10.956;2023-05-09T14:18:54;97777.75;;;29.67;35.00
20156;BME280;10238;49.556;10.956;2023-05-09T14:21:42;97775.38;;;29.55;30.57
20156;BME280;10238;49.556;10.956;2023-05-09T14:24:30;97763.56;;;29.31;32.58
20156;BME280;10238;49.556;10.956;2023-05-09T14:27:20;97761.84;;;28.73;31.47
20156;BME280;10238;49.556;10.956;2023-05-09T14:30:10;97768.84;;;28.40;33.39
20156;BME280;10238;49.556;10.956;2023-05-09T14:32:58;97753.28;;;29.18;30.35
20156;BME280;10238;49.556;10.956;2023-05-09T14:35:46;97742.53;;;29.50;34.62
20156;BME280;10238;49.556;10.956;2023-05-09T14:38:35;97743.06;;;29.99;33.68
20156;BME280;10238;49.556;10.956;2023-05-09T14:41:23;97739.34;;;29.43;29.78